sim
Sign-in with your pilot id or email,
or register
Callsign
Passwort

Schedule Details

Flight Number: DLH2665
Departure: Ibiza Airport (LEIB) at 09:35
Arrival: Munich Airport (EDDM) at 12:00
Route: Lufthansa Passenger Schedule. Enter filed route here before submitting Pirep.

Weather Information
Getting current METAR information for LEIB 240400Z 30003KT 9999 FEW015 22/21 Q1012 NOSIG
Getting current METAR information for EDDM 240420Z VRB02KT CAVOK 09/09 Q1009 NOSIG

Schedule Frequency

Route Map